PWSweather.com
Personal Weather Stations
Station Observations
K4FB1
Clubhouse Heritage, Lakeland, FL 33812

Clubhouse HeritageLakeland, FL 33812

Lat: 27.969224, Lon: -81.897769

Elevation: 145

Station Type: Davis Vantage Pro2

http://www.ClubhouseWX.com

High Low Average
Temperature 83.4°F28.6°F 61.6°F16.4°F 72.0°F22.2°F
Dew Point 70.6°F21.4°F 48.4°F9.1°F 64.7°F18.2°F
Winds 9.0 mph -14.5 mph - 1.0 mph 1.6 mph 4.3 mph 6.9 mph
Wind Gusts 26.0 mph41.8 mph 7.0 mph11.3 mph 13.4 mph21.6 mph
Humidity 91% 61% 78%
Pressure 29.95 in1014.20 in 29.81 in1009.50 in -
Precipitation 0.28 in7.10 in - -
Hour Temp Dew Point Humidity Winds Wind Gusts Pressure Precip Precip Rate Daily Precip Total
12:00 AM 80.7°F27.1°C 68.7°F20.4°C 67% 5.0 mph SW8.0 kmh SW 15.0 mph24.1 kmh 29.92 in1013.2 mb 0.00 in0.0 mm 0.00 in0.0 mm 0.00 in0.0 mm
12:30 AM 80.9°F27.2°C 68.5°F20.3°C 66% 5.0 mph SW8.0 kmh SW 18.0 mph29.0 kmh 29.91 in1012.9 mb 0.00 in0.0 mm 0.00 in0.0 mm 0.00 in0.0 mm
01:00 AM 82.2°F27.9°C 68.8°F20.4°C 64% 5.0 mph SW8.0 kmh SW 14.0 mph22.5 kmh 29.90 in1012.5 mb 0.00 in0.0 mm 0.00 in0.0 mm 0.00 in0.0 mm
01:30 AM 83.4°F28.6°C 69.0°F20.6°C 62% 6.0 mph SW9.7 kmh SW 17.0 mph27.4 kmh 29.89 in1012.2 mb 0.00 in0.0 mm 0.00 in0.0 mm 0.00 in0.0 mm
02:00 AM 82.6°F28.1°C 69.2°F20.7°C 64% 5.0 mph WSW8.0 kmh WSW 15.0 mph24.1 kmh 29.88 in1011.9 mb 0.00 in0.0 mm 0.00 in0.0 mm 0.00 in0.0 mm
02:30 AM 81.4°F27.4°C 68.9°F20.5°C 66% 5.0 mph SW8.0 kmh SW 16.0 mph25.7 kmh 29.88 in1011.9 mb 0.00 in0.0 mm 0.00 in0.0 mm 0.00 in0.0 mm
03:00 AM 81.3°F27.4°C 69.3°F20.7°C 67% 6.0 mph SW9.7 kmh SW 15.0 mph24.1 kmh 29.87 in1011.5 mb 0.00 in0.0 mm 0.00 in0.0 mm 0.00 in0.0 mm
03:30 AM 81.6°F27.6°C 69.1°F20.6°C 66% 5.0 mph SW8.0 kmh SW 13.0 mph20.9 kmh 29.88 in1011.9 mb 0.00 in0.0 mm 0.00 in0.0 mm 0.00 in0.0 mm
04:00 AM 80.5°F26.9°C 69.0°F20.6°C 68% 4.0 mph WSW6.4 kmh WSW 12.0 mph19.3 kmh 29.88 in1011.9 mb 0.00 in0.0 mm 0.00 in0.0 mm 0.00 in0.0 mm
04:30 AM 80.5°F26.9°C 69.0°F20.6°C 68% 4.0 mph SW6.4 kmh SW 13.0 mph20.9 kmh 29.88 in1011.9 mb 0.00 in0.0 mm 0.00 in0.0 mm 0.00 in0.0 mm
05:00 AM 78.3°F25.7°C 68.1°F20.1°C 71% 3.0 mph SW4.8 kmh SW 13.0 mph20.9 kmh 29.89 in1012.2 mb 0.00 in0.0 mm 0.00 in0.0 mm 0.00 in0.0 mm
05:30 AM 77.0°F25.0°C 67.7°F19.8°C 73% 3.0 mph SW4.8 kmh SW 11.0 mph17.7 kmh 29.88 in1011.9 mb 0.00 in0.0 mm 0.00 in0.0 mm 0.00 in0.0 mm
06:00 AM 75.9°F24.4°C 67.8°F19.9°C 76% 3.0 mph SSW4.8 kmh SSW 11.0 mph17.7 kmh 29.89 in1012.2 mb 0.00 in0.0 mm 0.00 in0.0 mm 0.00 in0.0 mm
06:30 AM 75.1°F23.9°C 67.8°F19.9°C 78% 3.0 mph SW4.8 kmh SW 11.0 mph17.7 kmh 29.88 in1011.9 mb 0.00 in0.0 mm 0.00 in0.0 mm 0.00 in0.0 mm
07:00 AM 74.1°F23.4°C 67.9°F19.9°C 81% 3.0 mph S4.8 kmh S 8.0 mph12.9 kmh 29.88 in1011.9 mb 0.00 in0.0 mm 0.00 in0.0 mm 0.00 in0.0 mm
07:30 AM 73.8°F23.2°C 68.0°F20.0°C 82% 4.0 mph S6.4 kmh S 11.0 mph17.7 kmh 29.88 in1011.9 mb 0.00 in0.0 mm 0.00 in0.0 mm 0.00 in0.0 mm
08:00 AM 73.3°F22.9°C 68.2°F20.1°C 84% 4.0 mph S6.4 kmh S 12.0 mph19.3 kmh 29.88 in1011.9 mb 0.00 in0.0 mm 0.00 in0.0 mm 0.00 in0.0 mm
08:30 AM 72.9°F22.7°C 68.5°F20.3°C 86% 4.0 mph SSW6.4 kmh SSW 12.0 mph19.3 kmh 29.88 in1011.9 mb 0.00 in0.0 mm 0.00 in0.0 mm 0.00 in0.0 mm
09:00 AM 72.8°F22.7°C 69.0°F20.6°C 88% 3.0 mph SW4.8 kmh SW 9.0 mph14.5 kmh 29.88 in1011.9 mb 0.00 in0.0 mm 0.00 in0.0 mm 0.00 in0.0 mm
09:30 AM 72.6°F22.6°C 69.2°F20.7°C 89% 4.0 mph SSW6.4 kmh SSW 10.0 mph16.1 kmh 29.88 in1011.9 mb 0.00 in0.0 mm 0.00 in0.0 mm 0.00 in0.0 mm
10:00 AM 72.6°F22.6°C 69.5°F20.8°C 90% 4.0 mph SSW6.4 kmh SSW 10.0 mph16.1 kmh 29.88 in1011.9 mb 0.00 in0.0 mm 0.00 in0.0 mm 0.00 in0.0 mm
10:30 AM 72.8°F22.7°C 70.0°F21.1°C 91% 3.0 mph S4.8 kmh S 11.0 mph17.7 kmh 29.88 in1011.9 mb 0.00 in0.0 mm 0.00 in0.0 mm 0.00 in0.0 mm
11:00 AM 73.3°F22.9°C 70.2°F21.2°C 90% 3.0 mph SSW4.8 kmh SSW 9.0 mph14.5 kmh 29.87 in1011.5 mb 0.00 in0.0 mm 0.00 in0.0 mm 0.00 in0.0 mm
11:30 AM 73.7°F23.2°C 70.6°F21.4°C 90% 3.0 mph SW4.8 kmh SW 11.0 mph17.7 kmh 29.87 in1011.5 mb 0.00 in0.0 mm 0.00 in0.0 mm 0.00 in0.0 mm
12:00 PM 73.5°F23.1°C 70.1°F21.2°C 89% 4.0 mph WSW6.4 kmh WSW 14.0 mph22.5 kmh 29.86 in1011.2 mb 0.00 in0.0 mm 0.00 in0.0 mm 0.00 in0.0 mm
12:30 PM 73.1°F22.8°C 69.7°F20.9°C 89% 3.0 mph WSW4.8 kmh WSW 10.0 mph16.1 kmh 29.85 in1010.8 mb 0.00 in0.0 mm 0.00 in0.0 mm 0.00 in0.0 mm
01:00 PM 72.7°F22.6°C 69.3°F20.7°C 89% 3.0 mph WSW4.8 kmh WSW 11.0 mph17.7 kmh 29.84 in1010.5 mb 0.00 in0.0 mm 0.00 in0.0 mm 0.00 in0.0 mm
01:30 PM 72.4°F22.4°C 68.6°F20.3°C 88% 3.0 mph SW4.8 kmh SW 13.0 mph20.9 kmh 29.83 in1010.2 mb 0.00 in0.0 mm 0.00 in0.0 mm 0.00 in0.0 mm
02:00 PM 72.1°F22.3°C 68.3°F20.2°C 88% 3.0 mph SW4.8 kmh SW 10.0 mph16.1 kmh 29.82 in1009.8 mb 0.00 in0.0 mm 0.00 in0.0 mm 0.00 in0.0 mm
02:30 PM 71.9°F22.2°C 68.2°F20.1°C 88% 3.0 mph SW4.8 kmh SW 11.0 mph17.7 kmh 29.81 in1009.5 mb 0.00 in0.0 mm 0.00 in0.0 mm 0.00 in0.0 mm
03:00 PM 71.7°F22.1°C 68.3°F20.2°C 89% 3.0 mph SW4.8 kmh SW 12.0 mph19.3 kmh 29.81 in1009.5 mb 0.00 in0.0 mm 0.00 in0.0 mm 0.00 in0.0 mm
03:30 PM 70.2°F21.2°C 67.1°F19.5°C 90% 4.0 mph WNW6.4 kmh WNW 18.0 mph29.0 kmh 29.83 in1010.2 mb 0.14 in3.6 mm 0.28 in7.1 mm 0.14 in3.6 mm
04:00 PM 69.0°F20.6°C 66.3°F19.1°C 91% 4.0 mph W6.4 kmh W 15.0 mph24.1 kmh 29.83 in1010.2 mb 0.14 in3.6 mm 0.00 in0.0 mm 0.14 in3.6 mm
04:30 PM 67.5°F19.7°C 64.1°F17.8°C 89% 5.0 mph WNW8.0 kmh WNW 14.0 mph22.5 kmh 29.82 in1009.8 mb 0.00 in0.0 mm 0.00 in0.0 mm 0.14 in3.6 mm
05:00 PM 66.5°F19.2°C 63.2°F17.3°C 89% 3.0 mph WNW4.8 kmh WNW 11.0 mph17.7 kmh 29.83 in1010.2 mb 0.00 in0.0 mm 0.00 in0.0 mm 0.14 in3.6 mm
05:30 PM 65.3°F18.5°C 61.3°F16.3°C 87% 3.0 mph W4.8 kmh W 9.0 mph14.5 kmh 29.84 in1010.5 mb 0.00 in0.0 mm 0.00 in0.0 mm 0.14 in3.6 mm
06:00 PM 64.0°F17.8°C 60.1°F15.6°C 87% 2.0 mph W3.2 kmh W 8.0 mph12.9 kmh 29.84 in1010.5 mb 0.00 in0.0 mm 0.00 in0.0 mm 0.14 in3.6 mm
06:30 PM 62.6°F17.0°C 59.3°F15.2°C 89% 1.0 mph WNW1.6 kmh WNW 7.0 mph11.3 kmh 29.86 in1011.2 mb 0.00 in0.0 mm 0.00 in0.0 mm 0.14 in3.6 mm
07:00 PM 62.9°F17.2°C 58.0°F14.4°C 84% 4.0 mph WNW6.4 kmh WNW 18.0 mph29.0 kmh 29.88 in1011.9 mb 0.00 in0.0 mm 0.00 in0.0 mm 0.14 in3.6 mm
07:30 PM 61.9°F16.6°C 55.0°F12.8°C 78% 6.0 mph NW9.7 kmh NW 16.0 mph25.7 kmh 29.89 in1012.2 mb 0.00 in0.0 mm 0.00 in0.0 mm 0.14 in3.6 mm
08:00 PM 62.5°F16.9°C 54.1°F12.3°C 74% 5.0 mph NW8.0 kmh NW 15.0 mph24.1 kmh 29.90 in1012.5 mb 0.00 in0.0 mm 0.00 in0.0 mm 0.14 in3.6 mm
08:30 PM 63.5°F17.5°C 54.3°F12.4°C 72% 5.0 mph WNW8.0 kmh WNW 15.0 mph24.1 kmh 29.91 in1012.9 mb 0.00 in0.0 mm 0.00 in0.0 mm 0.14 in3.6 mm
09:00 PM 63.9°F17.7°C 53.5°F11.9°C 69% 6.0 mph NW9.7 kmh NW 18.0 mph29.0 kmh 29.92 in1013.2 mb 0.00 in0.0 mm 0.00 in0.0 mm 0.14 in3.6 mm
09:30 PM 63.5°F17.5°C 51.9°F11.1°C 66% 7.0 mph NW11.3 kmh NW 17.0 mph27.4 kmh 29.94 in1013.9 mb 0.00 in0.0 mm 0.00 in0.0 mm 0.14 in3.6 mm
10:00 PM 64.1°F17.8°C 51.2°F10.7°C 63% 6.0 mph WNW9.7 kmh WNW 17.0 mph27.4 kmh 29.94 in1013.9 mb 0.00 in0.0 mm 0.00 in0.0 mm 0.14 in3.6 mm
10:30 PM 64.4°F18.0°C 51.1°F10.6°C 62% 8.0 mph NW12.9 kmh NW 21.0 mph33.8 kmh 29.95 in1014.2 mb 0.00 in0.0 mm 0.00 in0.0 mm 0.14 in3.6 mm
11:00 PM 63.8°F17.7°C 50.1°F10.1°C 61% 8.0 mph NW12.9 kmh NW 18.0 mph29.0 kmh 29.95 in1014.2 mb 0.00 in0.0 mm 0.00 in0.0 mm 0.14 in3.6 mm
11:30 PM 61.6°F16.4°C 48.4°F9.1°C 62% 9.0 mph NW14.5 kmh NW 26.0 mph41.8 kmh 29.95 in1014.2 mb 0.00 in0.0 mm 0.00 in0.0 mm 0.14 in3.6 mm